LESO/EAS METAR and TAF weather

Enter ICAO airport designator
Station Type Date Time Source
LESO METAR 2020/06/06 01:00 UTC NOAA

LESO 060100Z AUTO 23004KT 9000 SCT027 BKN032 OVC039 16/15 Q1013


Station Type Date Time Source
LESO Decoded METAR 2020/06/06 01:00 UTC NOAA

San Sebastian / Fuenterrabia, Spain (LESO) 43-21N 001-48W 8M
Jun 05, 2020 - 09:00 PM EDT / 2020.06.06 0100 UTC
Wind: from the SW (230 degrees) at 5 MPH (4 KT):0
Visibility: 5 mile(s):0
Sky conditions: overcast
Temperature: 60 F (16 C)
Dew Point: 59 F (15 C)
Relative Humidity: 93%
Pressure (altimeter): 29.91 in. Hg (1013 hPa)
ob: LESO 060100Z AUTO 23004KT 9000 SCT027 BKN032 OVC039 16/15 Q1013
cycle: 1

Station Type Date Time Source
LESO TAF 2020/06/05 18:27 UTC NOAA

TAF LESO 051700Z 0518/0618 26007KT 9999 SCT025 BKN040 TX21/0615Z TN15/0606Z PROB40
TEMPO 0521/0612 3000 -RADZ BKN010 BKN014
TEMPO 0612/0618 3000 RA BKN010

Example: see airport list